sensor_id;sensor_type;location;lat;lon;timestamp;pressure;altitude;pressure_sealevel;temperature;humidity
77526;BME280;66627;29.424;-98.496;2024-01-06T00:00:30;98511.26;;;16.91;25.37
77526;BME280;66627;29.424;-98.496;2024-01-06T00:02:55;98509.87;;;17.45;25.08
77526;BME280;66627;29.424;-98.496;2024-01-06T00:05:22;98516.89;;;17.24;25.30
77526;BME280;66627;29.424;-98.496;2024-01-06T00:07:46;98518.44;;;17.04;25.63
77526;BME280;66627;29.424;-98.496;2024-01-06T00:10:11;98515.98;;;17.46;24.95
77526;BME280;66627;29.424;-98.496;2024-01-06T00:12:37;98515.16;;;17.46;24.97
77526;BME280;66627;29.424;-98.496;2024-01-06T00:15:01;98523.85;;;17.12;25.37
77526;BME280;66627;29.424;-98.496;2024-01-06T00:17:27;98524.77;;;16.73;26.55
77526;BME280;66627;29.424;-98.496;2024-01-06T00:19:52;98530.24;;;16.27;26.47
77526;BME280;66627;29.424;-98.496;2024-01-06T00:22:18;98534.53;;;15.74;27.45
77526;BME280;66627;29.424;-98.496;2024-01-06T00:24:42;98534.24;;;16.48;27.31
77526;BME280;66627;29.424;-98.496;2024-01-06T00:27:07;98534.32;;;16.50;28.09
77526;BME280;66627;29.424;-98.496;2024-01-06T00:29:33;98537.25;;;16.02;28.08
77526;BME280;66627;29.424;-98.496;2024-01-06T00:31:59;98533.79;;;16.08;28.46
77526;BME280;66627;29.424;-98.496;2024-01-06T00:34:22;98536.03;;;15.68;28.29
77526;BME280;66627;29.424;-98.496;2024-01-06T00:36:49;98535.71;;;15.49;28.47
77526;BME280;66627;29.424;-98.496;2024-01-06T00:39:14;98536.57;;;15.68;28.63
77526;BME280;66627;29.424;-98.496;2024-01-06T00:41:42;98531.85;;;15.10;28.71
77526;BME280;66627;29.424;-98.496;2024-01-06T00:44:04;98527.36;;;15.07;29.68
77526;BME280;66627;29.424;-98.496;2024-01-06T00:46:29;98527.05;;;15.35;29.24
77526;BME280;66627;29.424;-98.496;2024-01-06T00:48:54;98530.67;;;14.56;30.92
77526;BME280;66627;29.424;-98.496;2024-01-06T00:51:19;98533.33;;;14.83;30.94
77526;BME280;66627;29.424;-98.496;2024-01-06T00:53:46;98527.06;;;14.90;30.79
77526;BME280;66627;29.424;-98.496;2024-01-06T00:56:10;98528.66;;;14.78;31.39
77526;BME280;66627;29.424;-98.496;2024-01-06T00:58:35;98527.12;;;14.73;31.14
77526;BME280;66627;29.424;-98.496;2024-01-06T01:01:00;98529.86;;;14.68;30.93
77526;BME280;66627;29.424;-98.496;2024-01-06T01:03:26;98525.07;;;14.60;31.63
77526;BME280;66627;29.424;-98.496;2024-01-06T01:05:51;98528.97;;;14.49;31.13
77526;BME280;66627;29.424;-98.496;2024-01-06T01:08:17;98528.97;;;14.80;30.25
77526;BME280;66627;29.424;-98.496;2024-01-06T01:10:41;98529.96;;;14.06;31.69
77526;BME280;66627;29.424;-98.496;2024-01-06T01:13:07;98535.44;;;13.77;32.87
77526;BME280;66627;29.424;-98.496;2024-01-06T01:15:33;98539.59;;;14.44;31.36
77526;BME280;66627;29.424;-98.496;2024-01-06T01:17:57;98537.98;;;14.21;31.88
77526;BME280;66627;29.424;-98.496;2024-01-06T01:20:24;98541.10;;;13.78;32.75
77526;BME280;66627;29.424;-98.496;2024-01-06T01:22:48;98541.73;;;13.20;33.26
77526;BME280;66627;29.424;-98.496;2024-01-06T01:25:14;98544.69;;;13.61;33.75
77526;BME280;66627;29.424;-98.496;2024-01-06T01:27:40;98547.61;;;13.94;33.97
77526;BME280;66627;29.424;-98.496;2024-01-06T01:30:06;98546.28;;;12.97;34.18
77526;BME280;66627;29.424;-98.496;2024-01-06T01:32:29;98546.42;;;13.45;34.12
77526;BME280;66627;29.424;-98.496;2024-01-06T01:34:56;98545.92;;;13.17;34.74
77526;BME280;66627;29.424;-98.496;2024-01-06T01:37:20;98548.42;;;13.06;35.28
77526;BME280;66627;29.424;-98.496;2024-01-06T01:39:47;98551.15;;;12.88;34.76
77526;BME280;66627;29.424;-98.496;2024-01-06T01:42:11;98553.87;;;12.67;34.72
77526;BME280;66627;29.424;-98.496;2024-01-06T01:44:38;98557.70;;;12.93;34.71
77526;BME280;66627;29.424;-98.496;2024-01-06T01:47:05;98562.03;;;12.59;35.17
77526;BME280;66627;29.424;-98.496;2024-01-06T01:49:27;98559.08;;;12.71;35.36
77526;BME280;66627;29.424;-98.496;2024-01-06T01:51:52;98557.76;;;13.09;35.68
77526;BME280;66627;29.424;-98.496;2024-01-06T01:54:18;98561.53;;;12.67;35.97
77526;BME280;66627;29.424;-98.496;2024-01-06T01:56:45;98570.80;;;12.36;36.56
77526;BME280;66627;29.424;-98.496;2024-01-06T01:59:12;98574.27;;;12.08;36.64
77526;BME280;66627;29.424;-98.496;2024-01-06T02:01:35;98570.16;;;12.17;36.85
77526;BME280;66627;29.424;-98.496;2024-01-06T02:03:59;98573.21;;;12.25;36.90
77526;BME280;66627;29.424;-98.496;2024-01-06T02:06:25;98576.53;;;12.34;37.09
77526;BME280;66627;29.424;-98.496;2024-01-06T02:08:50;98587.02;;;12.31;37.18
77526;BME280;66627;29.424;-98.496;2024-01-06T02:11:15;98591.53;;;12.31;37.88
77526;BME280;66627;29.424;-98.496;2024-01-06T02:13:41;98592.67;;;12.03;36.47
77526;BME280;66627;29.424;-98.496;2024-01-06T02:16:13;98594.59;;;12.24;37.20
77526;BME280;66627;29.424;-98.496;2024-01-06T02:18:32;98598.99;;;12.36;36.91
77526;BME280;66627;29.424;-98.496;2024-01-06T02:20:59;98606.04;;;12.24;37.93
77526;BME280;66627;29.424;-98.496;2024-01-06T02:23:24;98610.29;;;12.51;36.93
77526;BME280;66627;29.424;-98.496;2024-01-06T02:25:48;98611.17;;;12.52;37.23
77526;BME280;66627;29.424;-98.496;2024-01-06T02:28:15;98618.17;;;12.75;37.11
77526;BME280;66627;29.424;-98.496;2024-01-06T02:30:42;98617.97;;;12.52;37.06
77526;BME280;66627;29.424;-98.496;2024-01-06T02:33:07;98623.69;;;12.78;37.12
77526;BME280;66627;29.424;-98.496;2024-01-06T02:35:30;98627.05;;;12.65;36.95
77526;BME280;66627;29.424;-98.496;2024-01-06T02:37:56;98625.71;;;12.87;35.30
77526;BME280;66627;29.424;-98.496;2024-01-06T02:40:22;98625.33;;;12.20;36.69
77526;BME280;66627;29.424;-98.496;2024-01-06T02:42:46;98629.77;;;12.13;36.96
77526;BME280;66627;29.424;-98.496;2024-01-06T02:45:13;98629.16;;;12.47;35.68
77526;BME280;66627;29.424;-98.496;2024-01-06T02:47:38;98632.59;;;12.49;36.45
77526;BME280;66627;29.424;-98.496;2024-01-06T02:50:05;98630.58;;;12.84;36.77
77526;BME280;66627;29.424;-98.496;2024-01-06T02:52:28;98635.81;;;12.68;36.47
77526;BME280;66627;29.424;-98.496;2024-01-06T02:54:54;98639.94;;;12.95;36.75
77526;BME280;66627;29.424;-98.496;2024-01-06T02:57:20;98641.66;;;12.48;35.67
77526;BME280;66627;29.424;-98.496;2024-01-06T02:59:44;98638.57;;;12.54;36.44
77526;BME280;66627;29.424;-98.496;2024-01-06T03:02:10;98643.02;;;12.61;36.53
77526;BME280;66627;29.424;-98.496;2024-01-06T03:04:36;98643.10;;;12.53;36.93
77526;BME280;66627;29.424;-98.496;2024-01-06T03:07:01;98644.26;;;12.39;37.49
77526;BME280;66627;29.424;-98.496;2024-01-06T03:09:26;98642.51;;;12.78;37.23
77526;BME280;66627;29.424;-98.496;2024-01-06T03:11:53;98648.86;;;11.38;38.43
77526;BME280;66627;29.424;-98.496;2024-01-06T03:14:19;98645.85;;;11.14;36.67
77526;BME280;66627;29.424;-98.496;2024-01-06T03:16:43;98646.67;;;10.07;38.29
77526;BME280;66627;29.424;-98.496;2024-01-06T03:19:09;98643.78;;;10.00;39.38
77526;BME280;66627;29.424;-98.496;2024-01-06T03:21:34;98639.41;;;10.06;39.38
77526;BME280;66627;29.424;-98.496;2024-01-06T03:23:59;98638.85;;;10.13;40.52
77526;BME280;66627;29.424;-98.496;2024-01-06T03:26:25;98639.30;;;10.43;39.09
77526;BME280;66627;29.424;-98.496;2024-01-06T03:28:51;98638.30;;;10.94;39.05
77526;BME280;66627;29.424;-98.496;2024-01-06T03:31:16;98636.17;;;11.60;38.26
77526;BME280;66627;29.424;-98.496;2024-01-06T03:33:40;98633.38;;;11.75;37.77
77526;BME280;66627;29.424;-98.496;2024-01-06T03:36:07;98633.26;;;11.08;39.54
77526;BME280;66627;29.424;-98.496;2024-01-06T03:38:31;98633.82;;;11.10;40.04
77526;BME280;66627;29.424;-98.496;2024-01-06T03:40:58;98634.99;;;11.01;39.58
77526;BME280;66627;29.424;-98.496;2024-01-06T03:43:23;98639.02;;;10.70;40.56
77526;BME280;66627;29.424;-98.496;2024-01-06T03:45:47;98641.83;;;10.71;40.66
77526;BME280;66627;29.424;-98.496;2024-01-06T03:48:13;98638.60;;;10.65;40.09
77526;BME280;66627;29.424;-98.496;2024-01-06T03:50:38;98636.80;;;9.94;40.20
77526;BME280;66627;29.424;-98.496;2024-01-06T03:53:04;98636.90;;;9.41;41.39
77526;BME280;66627;29.424;-98.496;2024-01-06T03:55:30;98637.82;;;9.47;40.94
77526;BME280;66627;29.424;-98.496;2024-01-06T03:57:55;98634.62;;;10.06;40.96
77526;BME280;66627;29.424;-98.496;2024-01-06T04:00:22;98635.59;;;10.44;40.57
77526;BME280;66627;29.424;-98.496;2024-01-06T04:02:46;98629.58;;;10.84;39.18
77526;BME280;66627;29.424;-98.496;2024-01-06T04:05:11;98624.25;;;9.72;39.88
77526;BME280;66627;29.424;-98.496;2024-01-06T04:07:38;98615.50;;;10.10;41.04
77526;BME280;66627;29.424;-98.496;2024-01-06T04:10:03;98612.02;;;11.14;38.63
77526;BME280;66627;29.424;-98.496;2024-01-06T04:12:29;98617.78;;;11.37;37.66
77526;BME280;66627;29.424;-98.496;2024-01-06T04:14:55;98627.70;;;11.07;38.14
77526;BME280;66627;29.424;-98.496;2024-01-06T04:17:19;98641.37;;;10.25;39.02
77526;BME280;66627;29.424;-98.496;2024-01-06T04:19:43;98650.79;;;10.61;38.22
77526;BME280;66627;29.424;-98.496;2024-01-06T04:22:11;98652.56;;;10.75;39.22
77526;BME280;66627;29.424;-98.496;2024-01-06T04:24:34;98655.07;;;10.80;39.96
77526;BME280;66627;29.424;-98.496;2024-01-06T04:26:59;98666.37;;;11.49;39.68
77526;BME280;66627;29.424;-98.496;2024-01-06T04:29:26;98675.28;;;11.06;40.26
77526;BME280;66627;29.424;-98.496;2024-01-06T04:31:52;98681.14;;;10.82;40.20
77526;BME280;66627;29.424;-98.496;2024-01-06T04:34:17;98687.36;;;9.08;42.33
77526;BME280;66627;29.424;-98.496;2024-01-06T04:36:42;98684.10;;;9.63;42.05
77526;BME280;66627;29.424;-98.496;2024-01-06T04:39:06;98679.48;;;9.97;41.44
77526;BME280;66627;29.424;-98.496;2024-01-06T04:41:32;98677.03;;;10.03;42.42
77526;BME280;66627;29.424;-98.496;2024-01-06T04:43:58;98678.32;;;9.74;43.58
77526;BME280;66627;29.424;-98.496;2024-01-06T04:46:23;98670.66;;;10.25;42.04
77526;BME280;66627;29.424;-98.496;2024-01-06T04:48:48;98659.83;;;10.62;42.35
77526;BME280;66627;29.424;-98.496;2024-01-06T04:51:13;98657.98;;;10.55;41.81
77526;BME280;66627;29.424;-98.496;2024-01-06T04:53:40;98661.88;;;9.74;43.30
77526;BME280;66627;29.424;-98.496;2024-01-06T04:56:06;98658.94;;;10.05;42.57
77526;BME280;66627;29.424;-98.496;2024-01-06T04:58:31;98657.82;;;10.40;42.07
77526;BME280;66627;29.424;-98.496;2024-01-06T05:00:56;98662.15;;;10.51;42.32
77526;BME280;66627;29.424;-98.496;2024-01-06T05:03:22;98663.85;;;10.50;41.50
77526;BME280;66627;29.424;-98.496;2024-01-06T05:05:49;98664.94;;;10.75;41.57
77526;BME280;66627;29.424;-98.496;2024-01-06T05:08:13;98664.26;;;10.41;42.73
77526;BME280;66627;29.424;-98.496;2024-01-06T05:10:38;98666.67;;;10.32;43.64
77526;BME280;66627;29.424;-98.496;2024-01-06T05:13:03;98661.21;;;10.71;42.49
77526;BME280;66627;29.424;-98.496;2024-01-06T05:15:29;98663.24;;;8.91;44.66
77526;BME280;66627;29.424;-98.496;2024-01-06T05:17:55;98660.77;;;7.92;48.30
77526;BME280;66627;29.424;-98.496;2024-01-06T05:20:19;98654.05;;;7.41;48.54
77526;BME280;66627;29.424;-98.496;2024-01-06T05:22:44;98649.99;;;8.78;46.82
77526;BME280;66627;29.424;-98.496;2024-01-06T05:25:09;98651.04;;;9.60;45.17
77526;BME280;66627;29.424;-98.496;2024-01-06T05:27:34;98648.01;;;9.12;46.32
77526;BME280;66627;29.424;-98.496;2024-01-06T05:30:01;98647.56;;;9.19;45.28
77526;BME280;66627;29.424;-98.496;2024-01-06T05:32:27;98640.33;;;9.24;47.04
77526;BME280;66627;29.424;-98.496;2024-01-06T05:34:51;98634.06;;;8.57;48.72
77526;BME280;66627;29.424;-98.496;2024-01-06T05:37:17;98633.47;;;8.07;48.66
77526;BME280;66627;29.424;-98.496;2024-01-06T05:39:42;98638.82;;;8.25;48.03
77526;BME280;66627;29.424;-98.496;2024-01-06T05:42:09;98641.19;;;9.21;47.19
77526;BME280;66627;29.424;-98.496;2024-01-06T05:44:36;98639.71;;;8.91;46.70
77526;BME280;66627;29.424;-98.496;2024-01-06T05:47:00;98642.17;;;8.07;49.69
77526;BME280;66627;29.424;-98.496;2024-01-06T05:49:24;98640.04;;;6.97;52.44
77526;BME280;66627;29.424;-98.496;2024-01-06T05:51:49;98636.29;;;6.74;52.29
77526;BME280;66627;29.424;-98.496;2024-01-06T05:54:17;98629.67;;;7.41;51.76
77526;BME280;66627;29.424;-98.496;2024-01-06T05:56:41;98626.61;;;6.89;52.45
77526;BME280;66627;29.424;-98.496;2024-01-06T05:59:07;98618.63;;;7.95;50.92
77526;BME280;66627;29.424;-98.496;2024-01-06T06:01:33;98617.79;;;9.00;47.53
77526;BME280;66627;29.424;-98.496;2024-01-06T06:03:57;98620.61;;;9.37;46.85
77526;BME280;66627;29.424;-98.496;2024-01-06T06:06:23;98621.68;;;8.22;47.90
77526;BME280;66627;29.424;-98.496;2024-01-06T06:08:48;98618.68;;;8.14;48.33
77526;BME280;66627;29.424;-98.496;2024-01-06T06:11:15;98617.19;;;8.74;46.60
77526;BME280;66627;29.424;-98.496;2024-01-06T06:13:39;98619.43;;;8.92;46.91
77526;BME280;66627;29.424;-98.496;2024-01-06T06:16:04;98624.35;;;7.72;49.07
77526;BME280;66627;29.424;-98.496;2024-01-06T06:18:30;98627.64;;;7.75;50.18
77526;BME280;66627;29.424;-98.496;2024-01-06T06:20:55;98621.47;;;8.92;46.79
77526;BME280;66627;29.424;-98.496;2024-01-06T06:23:20;98618.91;;;8.36;48.55
77526;BME280;66627;29.424;-98.496;2024-01-06T06:25:45;98618.93;;;8.50;48.52
77526;BME280;66627;29.424;-98.496;2024-01-06T06:28:13;98627.77;;;6.72;52.82
77526;BME280;66627;29.424;-98.496;2024-01-06T06:30:36;98628.27;;;6.85;52.84
77526;BME280;66627;29.424;-98.496;2024-01-06T06:33:03;98625.72;;;6.55;53.19
77526;BME280;66627;29.424;-98.496;2024-01-06T06:35:28;98625.70;;;7.47;51.31
77526;BME280;66627;29.424;-98.496;2024-01-06T06:37:54;98628.14;;;7.25;51.85
77526;BME280;66627;29.424;-98.496;2024-01-06T06:40:19;98622.66;;;7.82;49.02
77526;BME280;66627;29.424;-98.496;2024-01-06T06:42:44;98631.35;;;6.71;52.39
77526;BME280;66627;29.424;-98.496;2024-01-06T06:45:10;98635.84;;;7.44;52.39
77526;BME280;66627;29.424;-98.496;2024-01-06T06:47:35;98636.40;;;7.30;51.56
77526;BME280;66627;29.424;-98.496;2024-01-06T06:50:01;98635.70;;;7.19;52.65
77526;BME280;66627;29.424;-98.496;2024-01-06T06:52:26;98632.06;;;7.60;51.07
77526;BME280;66627;29.424;-98.496;2024-01-06T06:54:51;98639.71;;;7.66;51.27
77526;BME280;66627;29.424;-98.496;2024-01-06T06:57:18;98641.26;;;6.67;52.38
77526;BME280;66627;29.424;-98.496;2024-01-06T06:59:42;98648.11;;;7.24;51.06
77526;BME280;66627;29.424;-98.496;2024-01-06T07:02:08;98651.84;;;6.44;53.68
77526;BME280;66627;29.424;-98.496;2024-01-06T07:04:34;98649.09;;;5.67;55.52
77526;BME280;66627;29.424;-98.496;2024-01-06T07:06:59;98650.90;;;6.16;54.19
77526;BME280;66627;29.424;-98.496;2024-01-06T07:09:24;98648.35;;;6.60;53.16
77526;BME280;66627;29.424;-98.496;2024-01-06T07:11:50;98643.35;;;6.83;52.70
77526;BME280;66627;29.424;-98.496;2024-01-06T07:14:16;98641.27;;;6.15;54.47
77526;BME280;66627;29.424;-98.496;2024-01-06T07:16:40;98633.37;;;6.79;53.22
77526;BME280;66627;29.424;-98.496;2024-01-06T07:19:07;98627.72;;;7.80;50.32
77526;BME280;66627;29.424;-98.496;2024-01-06T07:21:31;98621.28;;;8.00;49.56
77526;BME280;66627;29.424;-98.496;2024-01-06T07:23:57;98614.08;;;8.11;48.91
77526;BME280;66627;29.424;-98.496;2024-01-06T07:26:22;98606.56;;;8.61;48.16
77526;BME280;66627;29.424;-98.496;2024-01-06T07:28:49;98603.45;;;8.18;48.38
77526;BME280;66627;29.424;-98.496;2024-01-06T07:31:14;98615.66;;;7.20;49.23
77526;BME280;66627;29.424;-98.496;2024-01-06T07:33:39;98621.08;;;7.79;49.92
77526;BME280;66627;29.424;-98.496;2024-01-06T07:36:06;98624.33;;;8.26;49.20
77526;BME280;66627;29.424;-98.496;2024-01-06T07:38:30;98625.52;;;7.72;49.70
77526;BME280;66627;29.424;-98.496;2024-01-06T07:40:57;98629.95;;;7.59;49.55
77526;BME280;66627;29.424;-98.496;2024-01-06T07:43:22;98632.19;;;7.21;49.29
77526;BME280;66627;29.424;-98.496;2024-01-06T07:45:47;98634.98;;;6.77;51.24
77526;BME280;66627;29.424;-98.496;2024-01-06T07:48:13;98638.56;;;7.89;49.23
77526;BME280;66627;29.424;-98.496;2024-01-06T07:50:39;98643.43;;;6.58;49.72
77526;BME280;66627;29.424;-98.496;2024-01-06T07:53:05;98646.93;;;6.84;52.05
77526;BME280;66627;29.424;-98.496;2024-01-06T07:55:31;98640.97;;;7.14;50.64
77526;BME280;66627;29.424;-98.496;2024-01-06T07:57:56;98640.03;;;7.79;49.21
77526;BME280;66627;29.424;-98.496;2024-01-06T08:00:23;98640.54;;;7.01;51.75
77526;BME280;66627;29.424;-98.496;2024-01-06T08:02:47;98637.74;;;6.49;52.33
77526;BME280;66627;29.424;-98.496;2024-01-06T08:05:14;98632.74;;;5.80;54.10
77526;BME280;66627;29.424;-98.496;2024-01-06T08:07:39;98640.08;;;5.77;54.16
77526;BME280;66627;29.424;-98.496;2024-01-06T08:10:07;98649.37;;;6.24;54.08
77526;BME280;66627;29.424;-98.496;2024-01-06T08:12:30;98653.07;;;6.25;53.80
77526;BME280;66627;29.424;-98.496;2024-01-06T08:14:55;98643.85;;;6.80;51.37
77526;BME280;66627;29.424;-98.496;2024-01-06T08:17:19;98649.59;;;6.57;51.12
77526;BME280;66627;29.424;-98.496;2024-01-06T08:19:46;98651.80;;;6.78;49.84
77526;BME280;66627;29.424;-98.496;2024-01-06T08:22:09;98653.18;;;7.00;49.51
77526;BME280;66627;29.424;-98.496;2024-01-06T08:24:34;98659.95;;;7.17;48.65
77526;BME280;66627;29.424;-98.496;2024-01-06T08:26:59;98666.32;;;6.44;49.95
77526;BME280;66627;29.424;-98.496;2024-01-06T08:29:29;98666.04;;;7.17;49.07
77526;BME280;66627;29.424;-98.496;2024-01-06T08:31:51;98666.96;;;7.46;47.97
77526;BME280;66627;29.424;-98.496;2024-01-06T08:34:16;98668.92;;;6.40;49.84
77526;BME280;66627;29.424;-98.496;2024-01-06T08:36:44;98666.76;;;7.47;47.99
77526;BME280;66627;29.424;-98.496;2024-01-06T08:39:10;98666.56;;;7.21;48.49
77526;BME280;66627;29.424;-98.496;2024-01-06T08:41:33;98665.32;;;7.41;48.80
77526;BME280;66627;29.424;-98.496;2024-01-06T08:44:01;98662.12;;;7.40;48.27
77526;BME280;66627;29.424;-98.496;2024-01-06T08:46:25;98659.22;;;8.01;47.33
77526;BME280;66627;29.424;-98.496;2024-01-06T08:48:50;98659.85;;;7.62;48.24
77526;BME280;66627;29.424;-98.496;2024-01-06T08:51:15;98660.42;;;7.61;48.26
77526;BME280;66627;29.424;-98.496;2024-01-06T08:53:39;98658.88;;;6.66;50.64
77526;BME280;66627;29.424;-98.496;2024-01-06T08:56:05;98657.19;;;6.61;51.52
77526;BME280;66627;29.424;-98.496;2024-01-06T08:58:31;98660.76;;;7.34;49.21
77526;BME280;66627;29.424;-98.496;2024-01-06T09:00:57;98664.76;;;7.49;47.59
77526;BME280;66627;29.424;-98.496;2024-01-06T09:03:21;98666.56;;;7.79;47.42
77526;BME280;66627;29.424;-98.496;2024-01-06T09:05:47;98665.62;;;7.63;48.91
77526;BME280;66627;29.424;-98.496;2024-01-06T09:08:12;98669.20;;;7.77;46.03
77526;BME280;66627;29.424;-98.496;2024-01-06T09:10:37;98675.13;;;7.69;46.17
77526;BME280;66627;29.424;-98.496;2024-01-06T09:13:02;98678.65;;;6.73;49.01
77526;BME280;66627;29.424;-98.496;2024-01-06T09:15:30;98677.84;;;5.76;52.22
77526;BME280;66627;29.424;-98.496;2024-01-06T09:17:55;98672.46;;;5.94;52.69
77526;BME280;66627;29.424;-98.496;2024-01-06T09:20:20;98669.68;;;6.84;50.33
77526;BME280;66627;29.424;-98.496;2024-01-06T09:22:44;98670.89;;;7.02;48.65
77526;BME280;66627;29.424;-98.496;2024-01-06T09:25:09;98673.49;;;6.42;49.45
77526;BME280;66627;29.424;-98.496;2024-01-06T09:27:35;98672.68;;;6.64;49.61
77526;BME280;66627;29.424;-98.496;2024-01-06T09:30:01;98668.92;;;7.49;47.85
77526;BME280;66627;29.424;-98.496;2024-01-06T09:32:26;98670.73;;;7.80;46.80
77526;BME280;66627;29.424;-98.496;2024-01-06T09:34:52;98665.45;;;7.57;48.54
77526;BME280;66627;29.424;-98.496;2024-01-06T09:37:16;98664.40;;;8.01;47.35
77526;BME280;66627;29.424;-98.496;2024-01-06T09:39:41;98667.97;;;7.84;45.74
77526;BME280;66627;29.424;-98.496;2024-01-06T09:42:08;98667.44;;;7.58;45.91
77526;BME280;66627;29.424;-98.496;2024-01-06T09:44:33;98662.10;;;6.70;49.24
77526;BME280;66627;29.424;-98.496;2024-01-06T09:46:59;98655.19;;;7.58;47.96
77526;BME280;66627;29.424;-98.496;2024-01-06T09:49:25;98660.64;;;7.63;46.64
77526;BME280;66627;29.424;-98.496;2024-01-06T09:51:50;98664.15;;;7.42;47.01
77526;BME280;66627;29.424;-98.496;2024-01-06T09:54:15;98671.05;;;7.53;46.82
77526;BME280;66627;29.424;-98.496;2024-01-06T09:56:40;98672.74;;;7.28;48.59
77526;BME280;66627;29.424;-98.496;2024-01-06T09:59:06;98677.73;;;7.28;49.62
77526;BME280;66627;29.424;-98.496;2024-01-06T10:01:31;98678.40;;;6.81;47.64
77526;BME280;66627;29.424;-98.496;2024-01-06T10:03:56;98672.56;;;6.31;48.90
77526;BME280;66627;29.424;-98.496;2024-01-06T10:06:22;98666.32;;;5.40;51.55
77526;BME280;66627;29.424;-98.496;2024-01-06T10:08:49;98670.99;;;6.75;49.55
77526;BME280;66627;29.424;-98.496;2024-01-06T10:11:13;98680.08;;;6.80;50.87
77526;BME280;66627;29.424;-98.496;2024-01-06T10:13:38;98680.13;;;6.59;49.38
77526;BME280;66627;29.424;-98.496;2024-01-06T10:16:03;98670.42;;;7.08;49.44
77526;BME280;66627;29.424;-98.496;2024-01-06T10:18:29;98668.35;;;6.88;49.64
77526;BME280;66627;29.424;-98.496;2024-01-06T10:20:53;98678.80;;;6.10;49.94
77526;BME280;66627;29.424;-98.496;2024-01-06T10:23:19;98693.05;;;4.95;52.99
77526;BME280;66627;29.424;-98.496;2024-01-06T10:25:44;98694.09;;;4.93;53.44
77526;BME280;66627;29.424;-98.496;2024-01-06T10:28:12;98694.35;;;4.84;54.19
77526;BME280;66627;29.424;-98.496;2024-01-06T10:30:38;98702.00;;;4.97;53.69
77526;BME280;66627;29.424;-98.496;2024-01-06T10:33:01;98707.33;;;4.15;56.44
77526;BME280;66627;29.424;-98.496;2024-01-06T10:35:26;98707.28;;;4.47;56.24
77526;BME280;66627;29.424;-98.496;2024-01-06T10:37:52;98708.31;;;6.14;51.76
77526;BME280;66627;29.424;-98.496;2024-01-06T10:40:17;98706.73;;;5.80;52.10
77526;BME280;66627;29.424;-98.496;2024-01-06T10:42:43;98709.17;;;5.39;53.15
77526;BME280;66627;29.424;-98.496;2024-01-06T10:45:08;98709.17;;;6.13;52.10
77526;BME280;66627;29.424;-98.496;2024-01-06T10:47:33;98706.41;;;6.54;51.37
77526;BME280;66627;29.424;-98.496;2024-01-06T10:49:58;98707.71;;;5.81;51.63
77526;BME280;66627;29.424;-98.496;2024-01-06T10:52:24;98710.97;;;5.02;53.78
77526;BME280;66627;29.424;-98.496;2024-01-06T10:54:50;98714.27;;;5.16;54.24
77526;BME280;66627;29.424;-98.496;2024-01-06T10:57:14;98714.77;;;5.68;53.36
77526;BME280;66627;29.424;-98.496;2024-01-06T10:59:38;98720.65;;;4.79;54.85
77526;BME280;66627;29.424;-98.496;2024-01-06T11:02:03;98726.51;;;4.38;56.36
77526;BME280;66627;29.424;-98.496;2024-01-06T11:04:29;98731.15;;;4.40;55.31
77526;BME280;66627;29.424;-98.496;2024-01-06T11:06:54;98735.33;;;5.28;54.45
77526;BME280;66627;29.424;-98.496;2024-01-06T11:09:24;98734.64;;;5.63;53.66
77526;BME280;66627;29.424;-98.496;2024-01-06T11:11:45;98732.89;;;5.27;53.20
77526;BME280;66627;29.424;-98.496;2024-01-06T11:14:22;98729.11;;;5.56;52.43
77526;BME280;66627;29.424;-98.496;2024-01-06T11:16:37;98733.29;;;5.69;53.05
77526;BME280;66627;29.424;-98.496;2024-01-06T11:19:01;98734.12;;;6.20;51.82
77526;BME280;66627;29.424;-98.496;2024-01-06T11:21:29;98734.89;;;5.67;52.28
77526;BME280;66627;29.424;-98.496;2024-01-06T11:26:16;98741.91;;;5.46;53.50
77526;BME280;66627;29.424;-98.496;2024-01-06T11:28:45;98739.12;;;5.73;53.32
77526;BME280;66627;29.424;-98.496;2024-01-06T11:31:09;98741.53;;;5.62;52.50
77526;BME280;66627;29.424;-98.496;2024-01-06T11:33:32;98746.57;;;5.04;53.87
77526;BME280;66627;29.424;-98.496;2024-01-06T11:36:02;98749.74;;;5.70;52.19
77526;BME280;66627;29.424;-98.496;2024-01-06T11:38:25;98757.84;;;5.08;53.30
77526;BME280;66627;29.424;-98.496;2024-01-06T11:40:48;98761.10;;;5.39;53.07
77526;BME280;66627;29.424;-98.496;2024-01-06T11:43:15;98757.27;;;4.78;54.48
77526;BME280;66627;29.424;-98.496;2024-01-06T11:45:41;98748.28;;;5.28;52.86
77526;BME280;66627;29.424;-98.496;2024-01-06T11:48:07;98759.55;;;4.21;54.34
77526;BME280;66627;29.424;-98.496;2024-01-06T11:50:30;98770.72;;;3.44;56.65
77526;BME280;66627;29.424;-98.496;2024-01-06T11:52:56;98770.82;;;3.36;56.96
77526;BME280;66627;29.424;-98.496;2024-01-06T11:55:22;98771.14;;;3.45;56.81
77526;BME280;66627;29.424;-98.496;2024-01-06T11:57:48;98787.25;;;2.92;58.38
77526;BME280;66627;29.424;-98.496;2024-01-06T12:00:12;98795.99;;;3.48;58.63
77526;BME280;66627;29.424;-98.496;2024-01-06T12:02:37;98792.94;;;3.82;57.63
77526;BME280;66627;29.424;-98.496;2024-01-06T12:05:02;98800.44;;;5.07;53.68
77526;BME280;66627;29.424;-98.496;2024-01-06T12:07:27;98810.06;;;3.96;57.01
77526;BME280;66627;29.424;-98.496;2024-01-06T12:10:00;98816.12;;;4.25;56.51
77526;BME280;66627;29.424;-98.496;2024-01-06T12:12:20;98824.88;;;4.46;55.33
77526;BME280;66627;29.424;-98.496;2024-01-06T12:14:46;98831.15;;;4.12;56.83
77526;BME280;66627;29.424;-98.496;2024-01-06T12:17:11;98828.74;;;5.03;54.62
77526;BME280;66627;29.424;-98.496;2024-01-06T12:19:35;98831.32;;;5.33;53.22
77526;BME280;66627;29.424;-98.496;2024-01-06T12:22:01;98835.13;;;5.86;52.25
77526;BME280;66627;29.424;-98.496;2024-01-06T12:24:28;98838.87;;;5.81;52.09
77526;BME280;66627;29.424;-98.496;2024-01-06T12:26:50;98841.33;;;5.85;51.55
77526;BME280;66627;29.424;-98.496;2024-01-06T12:29:18;98846.61;;;5.54;50.46
77526;BME280;66627;29.424;-98.496;2024-01-06T12:31:44;98848.06;;;5.80;51.67
77526;BME280;66627;29.424;-98.496;2024-01-06T12:34:09;98846.69;;;5.33;51.98
77526;BME280;66627;29.424;-98.496;2024-01-06T12:36:32;98849.42;;;5.70;51.13